createdAt,value
2019-01-14T00:01:33.428Z,-1.06
2019-01-14T00:04:02.797Z,-1.11
2019-01-14T00:06:32.141Z,-1.26
2019-01-14T00:09:01.512Z,-1.54
2019-01-14T00:11:30.913Z,-1.82
2019-01-14T00:14:00.241Z,-1.97
2019-01-14T00:16:29.751Z,-2.13
2019-01-14T00:18:59.154Z,-2.14
2019-01-14T00:21:28.517Z,-2.25
2019-01-14T00:23:57.864Z,-2.20
2019-01-14T00:26:27.227Z,-2.34
2019-01-14T00:28:56.691Z,-2.46
2019-01-14T00:31:26.039Z,-2.39
2019-01-14T00:33:55.607Z,-2.48
2019-01-14T00:36:25.589Z,-2.49
2019-01-14T00:38:54.945Z,-2.52
2019-01-14T00:41:24.316Z,-2.62
2019-01-14T00:43:53.639Z,-2.58
2019-01-14T00:46:22.951Z,-2.55
2019-01-14T00:48:52.443Z,-2.69
2019-01-14T00:51:21.816Z,-2.90
2019-01-14T00:53:51.162Z,-2.93
2019-01-14T00:56:20.513Z,-2.97
2019-01-14T00:58:49.901Z,-3.12
2019-01-14T01:01:19.233Z,-3.08
2019-01-14T01:03:48.596Z,-3.04
2019-01-14T01:06:24.459Z,-3.03
2019-01-14T01:08:49.872Z,-3.00
2019-01-14T01:11:19.232Z,-3.10
2019-01-14T01:13:48.563Z,-3.01
2019-01-14T01:16:18.335Z,-3.05
2019-01-14T01:18:47.712Z,-3.12
2019-01-14T01:21:17.059Z,-3.11
2019-01-14T01:23:46.440Z,-3.07
2019-01-14T01:26:15.809Z,-3.16
2019-01-14T01:28:45.203Z,-3.24
2019-01-14T01:31:14.569Z,-3.30
2019-01-14T01:33:43.949Z,-3.35
2019-01-14T01:36:13.345Z,-3.39
2019-01-14T01:38:42.718Z,-3.39
2019-01-14T01:41:12.080Z,-3.31
2019-01-14T01:43:41.459Z,-3.10
2019-01-14T01:46:10.837Z,-3.09
2019-01-14T01:48:40.212Z,-3.17
2019-01-14T01:51:09.554Z,-3.22
2019-01-14T01:53:38.902Z,-3.24
2019-01-14T01:56:08.248Z,-3.23
2019-01-14T01:58:37.635Z,-3.10
2019-01-14T02:01:06.980Z,-2.97
2019-01-14T02:03:36.363Z,-2.96
2019-01-14T02:06:05.867Z,-2.97
2019-01-14T02:08:35.232Z,-3.04
2019-01-14T02:11:04.576Z,-3.02
2019-01-14T02:13:33.944Z,-2.89
2019-01-14T02:16:03.281Z,-2.80
2019-01-14T02:18:32.667Z,-2.88
2019-01-14T02:21:02.049Z,-2.98
2019-01-14T02:23:31.561Z,-3.10
2019-01-14T02:26:00.944Z,-3.12
2019-01-14T02:28:30.310Z,-3.02
2019-01-14T02:30:59.681Z,-2.76
2019-01-14T02:33:29.013Z,-2.74
2019-01-14T02:35:58.538Z,-2.76
2019-01-14T02:38:27.898Z,-2.98
2019-01-14T02:40:57.276Z,-3.09
2019-01-14T02:43:26.619Z,-3.14
2019-01-14T02:45:55.953Z,-3.26
2019-01-14T02:48:25.360Z,-3.47
2019-01-14T02:50:54.712Z,-3.72
2019-01-14T02:53:24.130Z,-3.72
2019-01-14T02:55:53.474Z,-4.06
2019-01-14T02:58:22.899Z,-4.31
2019-01-14T03:00:52.263Z,-4.71
2019-01-14T03:03:21.610Z,-5.12
2019-01-14T03:05:50.940Z,-5.12
2019-01-14T03:08:20.259Z,-4.92
2019-01-14T03:10:49.657Z,-4.84
2019-01-14T03:13:19.004Z,-4.60
2019-01-14T03:15:48.351Z,-4.52
2019-01-14T03:18:17.699Z,-4.57
2019-01-14T03:20:47.063Z,-4.56
2019-01-14T03:23:16.437Z,-4.53
2019-01-14T03:25:45.772Z,-4.57
2019-01-14T03:28:15.117Z,-4.55
2019-01-14T03:30:44.504Z,-4.63
2019-01-14T03:33:14.028Z,-4.69
2019-01-14T03:35:43.400Z,-4.56
2019-01-14T03:38:12.740Z,-4.50
2019-01-14T03:40:42.071Z,-4.55
2019-01-14T03:43:11.372Z,-4.67
2019-01-14T03:45:40.686Z,-4.60
2019-01-14T03:48:10.023Z,-4.62
2019-01-14T03:50:39.386Z,-4.52
2019-01-14T03:53:08.748Z,-4.31
2019-01-14T03:55:38.090Z,-4.16
2019-01-14T03:58:07.435Z,-4.17
2019-01-14T04:00:36.765Z,-4.47
2019-01-14T04:03:06.118Z,-4.57
2019-01-14T04:05:35.499Z,-4.49
2019-01-14T04:08:04.965Z,-4.70
2019-01-14T04:10:34.342Z,-4.68
2019-01-14T04:13:03.679Z,-4.61
2019-01-14T04:15:33.044Z,-4.76
2019-01-14T04:18:02.378Z,-4.92
2019-01-14T04:20:31.698Z,-5.02
2019-01-14T04:23:01.418Z,-4.94
2019-01-14T04:25:30.978Z,-4.91
2019-01-14T04:28:00.310Z,-4.96
2019-01-14T04:30:29.668Z,-5.04
2019-01-14T04:32:59.053Z,-5.11
2019-01-14T04:35:28.429Z,-4.96
2019-01-14T04:37:57.794Z,-4.69
2019-01-14T04:40:27.145Z,-4.62
2019-01-14T04:42:56.489Z,-4.70
2019-01-14T04:45:25.926Z,-4.67
2019-01-14T04:47:55.220Z,-4.60
2019-01-14T04:50:24.570Z,-4.57
2019-01-14T04:52:54.023Z,-4.53
2019-01-14T04:55:23.373Z,-4.48
2019-01-14T04:57:52.724Z,-4.45
2019-01-14T05:00:25.398Z,-4.37
2019-01-14T05:02:54.778Z,-4.37
2019-01-14T05:05:24.467Z,-4.37
2019-01-14T05:07:53.840Z,-4.38
2019-01-14T05:10:26.183Z,-4.52
2019-01-14T05:12:55.572Z,-4.61
2019-01-14T05:15:24.915Z,-4.61
2019-01-14T05:17:54.291Z,-4.57
2019-01-14T05:20:25.605Z,-4.64
2019-01-14T05:22:55.726Z,-4.75
2019-01-14T05:25:25.146Z,-4.62
2019-01-14T05:27:54.505Z,-4.49
2019-01-14T05:30:23.886Z,-4.38
2019-01-14T05:32:53.257Z,-4.34
2019-01-14T05:35:22.593Z,-4.12
2019-01-14T05:37:52.334Z,-4.02
2019-01-14T05:40:23.751Z,-4.18
2019-01-14T05:42:53.087Z,-4.13
2019-01-14T05:45:22.438Z,-4.12
2019-01-14T05:47:51.850Z,-4.03
2019-01-14T05:50:21.280Z,-3.89
2019-01-14T05:52:50.647Z,-3.87
2019-01-14T05:55:19.999Z,-3.95
2019-01-14T05:57:49.490Z,-3.86
2019-01-14T06:00:29.566Z,-3.77
2019-01-14T06:02:58.938Z,-3.73
2019-01-14T06:05:28.284Z,-3.48
2019-01-14T06:07:57.666Z,-3.36
2019-01-14T06:10:27.049Z,-3.12
2019-01-14T06:12:56.425Z,-2.90
2019-01-14T06:15:25.815Z,-2.81
2019-01-14T06:17:55.183Z,-2.75
2019-01-14T06:20:27.007Z,-2.57
2019-01-14T06:22:56.370Z,-2.37
2019-01-14T06:25:25.733Z,-2.34
2019-01-14T06:27:55.049Z,-2.24
2019-01-14T06:30:26.453Z,-2.23
2019-01-14T06:32:55.824Z,-2.65
2019-01-14T06:35:25.201Z,-2.88
2019-01-14T06:37:54.548Z,-3.20
2019-01-14T06:40:24.083Z,-3.48
2019-01-14T06:42:53.465Z,-3.57
2019-01-14T06:45:22.919Z,-3.64
2019-01-14T06:47:52.387Z,-3.57
2019-01-14T06:50:21.847Z,-3.64
2019-01-14T06:52:51.310Z,-3.72
2019-01-14T06:55:20.928Z,-3.64
2019-01-14T06:57:50.281Z,-3.70
2019-01-14T07:00:22.350Z,-3.67
2019-01-14T07:02:51.861Z,-3.54
2019-01-14T07:05:21.275Z,-3.43
2019-01-14T07:07:50.603Z,-3.37
2019-01-14T07:10:23.155Z,-3.33
2019-01-14T07:12:52.543Z,-3.30
2019-01-14T07:15:22.110Z,-3.16
2019-01-14T07:17:51.464Z,-3.25
2019-01-14T07:20:21.463Z,-3.22
2019-01-14T07:22:50.814Z,-2.75
2019-01-14T07:25:20.095Z,-2.25
2019-01-14T07:27:49.453Z,-1.90
2019-01-14T07:30:20.452Z,-1.50
2019-01-14T07:32:49.803Z,-1.18
2019-01-14T07:35:19.149Z,-0.98
2019-01-14T07:37:48.995Z,-1.21
2019-01-14T07:40:19.449Z,-1.30
2019-01-14T07:42:48.783Z,-1.40
2019-01-14T07:45:19.451Z,-1.48
2019-01-14T07:47:48.796Z,-1.26
2019-01-14T07:50:19.040Z,-1.18
2019-01-14T07:52:48.798Z,-1.17
2019-01-14T07:55:18.151Z,-1.07
2019-01-14T07:57:47.586Z,-0.92
2019-01-14T08:00:22.780Z,-0.76
2019-01-14T08:02:52.247Z,-0.77
2019-01-14T08:05:21.697Z,-0.70
2019-01-14T08:07:51.380Z,-0.60
2019-01-14T08:10:20.719Z,-0.50
2019-01-14T08:12:50.073Z,-0.46
2019-01-14T08:15:21.380Z,-0.25
2019-01-14T08:17:50.732Z,0.23
2019-01-14T08:20:20.085Z,0.33
2019-01-14T08:22:49.440Z,0.41
2019-01-14T08:25:18.766Z,0.51
2019-01-14T08:27:48.098Z,0.77
2019-01-14T08:30:19.423Z,0.77
2019-01-14T08:32:48.886Z,1.10
2019-01-14T08:35:18.226Z,0.95
2019-01-14T08:37:47.801Z,0.81
2019-01-14T08:40:18.227Z,1.05
2019-01-14T08:42:47.615Z,1.21
2019-01-14T08:45:19.871Z,1.10
2019-01-14T08:47:49.243Z,1.14
2019-01-14T08:50:20.760Z,0.80
2019-01-14T08:52:50.550Z,0.64
2019-01-14T08:55:20.017Z,0.62
2019-01-14T08:57:54.513Z,0.62
2019-01-14T09:00:22.121Z,0.66
2019-01-14T09:02:52.311Z,1.14
2019-01-14T09:05:21.804Z,1.14
2019-01-14T09:07:51.550Z,1.11
2019-01-14T09:10:25.823Z,1.08
2019-01-14T09:12:55.690Z,1.06
2019-01-14T09:15:25.227Z,0.96
2019-01-14T09:18:02.426Z,0.97
2019-01-14T09:20:25.910Z,0.74
2019-01-14T09:22:55.790Z,0.66
2019-01-14T09:25:25.190Z,0.66
2019-01-14T09:27:54.551Z,0.59
2019-01-14T09:30:25.742Z,0.56
2019-01-14T09:32:55.534Z,0.61
2019-01-14T09:35:25.165Z,0.64
2019-01-14T09:37:54.470Z,0.67
2019-01-14T09:40:25.047Z,0.81
2019-01-14T09:42:54.422Z,0.82
2019-01-14T09:45:24.890Z,0.76
2019-01-14T09:47:54.274Z,0.76
2019-01-14T09:50:23.595Z,0.87
2019-01-14T09:52:52.942Z,0.93
2019-01-14T09:55:22.465Z,0.77
2019-01-14T09:57:51.976Z,0.87
2019-01-14T10:00:21.305Z,0.96
2019-01-14T10:02:55.424Z,1.18
2019-01-14T10:05:22.145Z,1.29
2019-01-14T10:07:51.503Z,1.09
2019-01-14T10:10:21.195Z,0.97
2019-01-14T10:12:50.696Z,0.97
2019-01-14T10:15:24.933Z,0.72
2019-01-14T10:18:00.623Z,0.67
2019-01-14T10:20:30.063Z,0.43
2019-01-14T10:22:59.400Z,0.35
2019-01-14T10:25:28.766Z,0.45
2019-01-14T10:27:58.102Z,0.39
2019-01-14T10:30:27.481Z,0.44
2019-01-14T10:32:56.860Z,0.60
2019-01-14T10:35:26.225Z,0.61
2019-01-14T10:37:55.961Z,0.69
2019-01-14T10:40:25.343Z,0.56
2019-01-14T10:42:54.682Z,0.76
2019-01-14T10:45:24.676Z,0.99
2019-01-14T10:47:54.344Z,1.02
2019-01-14T10:50:23.721Z,0.90
2019-01-14T10:52:53.061Z,0.85
2019-01-14T10:55:22.536Z,0.93
2019-01-14T10:57:51.948Z,1.16
2019-01-14T11:00:26.195Z,1.09
2019-01-14T11:02:55.856Z,1.09
2019-01-14T11:05:27.920Z,1.01
2019-01-14T11:07:57.503Z,1.03
2019-01-14T11:10:26.844Z,1.18
2019-01-14T11:12:56.324Z,1.20
2019-01-14T11:15:25.711Z,1.32
2019-01-14T11:20:37.318Z,1.41
2019-01-14T11:23:06.854Z,1.43
2019-01-14T11:25:36.233Z,1.69
2019-01-14T11:28:06.012Z,1.69
2019-01-14T11:30:35.843Z,1.72
2019-01-14T11:33:06.118Z,1.81
2019-01-14T11:35:38.581Z,1.74
2019-01-14T11:38:11.045Z,2.05
2019-01-14T11:40:41.611Z,2.25
2019-01-14T11:43:10.937Z,2.46
2019-01-14T11:45:40.311Z,2.93
2019-01-14T11:48:09.683Z,3.34
2019-01-14T11:50:39.094Z,3.52
2019-01-14T11:53:08.713Z,3.45
2019-01-14T11:55:38.954Z,3.28
2019-01-14T11:58:08.326Z,3.20
2019-01-14T12:00:37.658Z,3.20
2019-01-14T12:03:08.551Z,3.00
2019-01-14T12:05:38.139Z,3.00
2019-01-14T12:08:07.822Z,2.93
2019-01-14T12:10:37.170Z,2.90
2019-01-14T12:13:06.457Z,2.95
2019-01-14T12:15:36.126Z,2.95
2019-01-14T12:18:06.155Z,2.96
2019-01-14T12:20:35.495Z,2.96
2019-01-14T12:23:05.385Z,2.78
2019-01-14T12:25:34.742Z,2.53
2019-01-14T12:28:04.435Z,2.65
2019-01-14T12:30:39.115Z,2.65
2019-01-14T12:33:08.694Z,2.85
2019-01-14T12:35:38.096Z,3.01
2019-01-14T12:38:07.656Z,3.02
2019-01-14T12:40:37.370Z,3.10
2019-01-14T12:43:06.767Z,3.10
2019-01-14T12:45:36.401Z,3.00
2019-01-14T12:48:05.882Z,3.00
2019-01-14T12:50:35.221Z,2.98
2019-01-14T12:53:04.914Z,3.09
2019-01-14T12:55:34.265Z,3.09
2019-01-14T12:58:03.595Z,2.99
2019-01-14T13:00:32.954Z,2.78
2019-01-14T13:03:02.344Z,2.58
2019-01-14T13:05:31.880Z,2.58
2019-01-14T13:08:01.345Z,2.45
2019-01-14T13:10:30.690Z,2.42
2019-01-14T13:13:00.083Z,2.34
2019-01-14T13:15:29.903Z,2.35
2019-01-14T13:17:59.265Z,2.31
2019-01-14T13:20:28.624Z,2.35
2019-01-14T13:22:57.984Z,2.35
2019-01-14T13:25:27.329Z,2.29
2019-01-14T13:27:56.681Z,2.22
2019-01-14T13:30:28.206Z,2.36
2019-01-14T13:32:57.934Z,2.36
2019-01-14T13:35:27.337Z,2.42
2019-01-14T13:37:56.822Z,2.79
2019-01-14T13:40:26.347Z,2.79
2019-01-14T13:42:55.817Z,2.54
2019-01-14T13:45:25.189Z,2.64
2019-01-14T13:47:54.561Z,2.72
2019-01-14T13:50:25.840Z,2.70
2019-01-14T13:52:55.195Z,2.62
2019-01-14T13:55:24.951Z,2.57
2019-01-14T13:57:54.283Z,2.47
2019-01-14T14:00:28.183Z,2.53
2019-01-14T14:02:57.884Z,2.55
2019-01-14T14:05:27.363Z,2.56
2019-01-14T14:07:56.751Z,2.50
2019-01-14T14:10:33.172Z,2.50
2019-01-14T14:13:02.549Z,2.53
2019-01-14T14:15:32.028Z,2.45
2019-01-14T14:18:01.416Z,2.48
2019-01-14T14:20:30.910Z,2.50
2019-01-14T14:23:00.843Z,2.50
2019-01-14T14:25:30.531Z,2.39
2019-01-14T14:27:59.916Z,2.41
2019-01-14T14:30:31.940Z,2.41
2019-01-14T14:33:01.312Z,2.48
2019-01-14T14:35:30.689Z,2.65
2019-01-14T14:38:01.212Z,2.65
2019-01-14T14:40:30.963Z,2.55
2019-01-14T14:43:00.309Z,2.63
2019-01-14T14:45:29.687Z,2.63
2019-01-14T14:47:59.391Z,2.55
2019-01-14T14:50:28.829Z,2.56
2019-01-14T14:52:58.186Z,2.47
2019-01-14T14:55:27.564Z,2.53
2019-01-14T14:57:57.368Z,2.49
2019-01-14T15:00:27.767Z,2.54
2019-01-14T15:02:57.189Z,2.52
2019-01-14T15:05:26.576Z,2.52
2019-01-14T15:07:56.061Z,2.53
2019-01-14T15:10:25.433Z,2.37
2019-01-14T15:12:54.811Z,2.34
2019-01-14T15:15:25.186Z,2.34
2019-01-14T15:17:54.603Z,2.30
2019-01-14T15:20:25.294Z,2.35
2019-01-14T15:22:54.693Z,2.32
2019-01-14T15:25:24.073Z,2.35
2019-01-14T15:27:53.924Z,2.32
2019-01-14T15:30:30.934Z,2.32
2019-01-14T15:33:00.299Z,2.28
2019-01-14T15:35:29.714Z,2.31
2019-01-14T15:37:59.128Z,2.31
2019-01-14T15:40:28.787Z,2.33
2019-01-14T15:42:58.127Z,2.38
2019-01-14T15:45:27.739Z,2.38
2019-01-14T15:47:57.108Z,2.44
2019-01-14T15:50:26.478Z,2.50
2019-01-14T15:52:55.863Z,2.50
2019-01-14T15:55:26.881Z,2.28
2019-01-14T15:57:56.430Z,2.28
2019-01-14T16:00:26.864Z,2.18
2019-01-14T16:02:56.404Z,2.18
2019-01-14T16:05:25.806Z,2.30
2019-01-14T16:07:55.262Z,2.29
2019-01-14T16:10:26.432Z,2.46
2019-01-14T16:12:55.933Z,2.54
2019-01-14T16:15:25.511Z,2.55
2019-01-14T16:17:55.358Z,2.55
2019-01-14T16:20:26.203Z,2.51
2019-01-14T16:22:55.596Z,2.51
2019-01-14T16:25:24.960Z,2.45
2019-01-14T16:27:54.321Z,2.45
2019-01-14T16:30:25.567Z,2.25
2019-01-14T16:32:54.907Z,2.25
2019-01-14T16:35:24.970Z,2.22
2019-01-14T16:37:54.343Z,2.22
2019-01-14T16:40:23.689Z,2.16
2019-01-14T16:42:53.457Z,2.19
2019-01-14T16:45:25.420Z,1.11
2019-01-14T16:47:55.147Z,1.11
2019-01-14T16:50:24.617Z,2.03
2019-01-14T16:52:54.032Z,2.08
2019-01-14T16:55:38.010Z,2.03
2019-01-14T16:58:07.481Z,2.16
2019-01-14T17:00:36.848Z,2.16
2019-01-14T17:03:06.252Z,2.15
2019-01-14T17:05:35.716Z,2.16
2019-01-14T17:08:05.769Z,2.16
2019-01-14T17:10:35.186Z,2.21
2019-01-14T17:13:04.815Z,2.21
2019-01-14T17:15:34.168Z,2.26
2019-01-14T17:18:03.816Z,2.12
2019-01-14T17:20:33.157Z,2.08
2019-01-14T17:23:02.517Z,2.08
2019-01-14T17:25:32.057Z,1.99
2019-01-14T17:28:01.436Z,2.03
2019-01-14T17:30:31.085Z,2.03
2019-01-14T17:33:00.425Z,2.11
2019-01-14T17:36:04.052Z,2.11
2019-01-14T17:38:33.603Z,2.11
2019-01-14T17:41:06.138Z,2.04
2019-01-14T17:43:35.661Z,1.78
2019-01-14T17:46:05.553Z,1.78
2019-01-14T17:48:35.455Z,1.72
2019-01-14T17:51:04.988Z,1.78
2019-01-14T17:53:34.644Z,1.88
2019-01-14T17:56:05.889Z,1.97
2019-01-14T17:58:38.626Z,1.97
2019-01-14T18:01:08.063Z,1.92
2019-01-14T18:03:37.411Z,1.86
2019-01-14T18:06:07.658Z,1.86
2019-01-14T18:08:37.027Z,1.75
2019-01-14T18:11:06.439Z,1.81
2019-01-14T18:13:35.777Z,1.91
2019-01-14T18:16:05.545Z,1.73
2019-01-14T18:18:36.187Z,1.72
2019-01-14T18:21:13.747Z,1.80
2019-01-14T18:23:41.676Z,1.77
2019-01-14T18:26:11.234Z,1.79
2019-01-14T18:28:40.828Z,1.90
2019-01-14T18:31:10.185Z,1.85
2019-01-14T18:33:39.555Z,1.85
2019-01-14T18:36:09.047Z,1.80
2019-01-14T18:38:39.182Z,1.85
2019-01-14T18:41:09.312Z,1.67
2019-01-14T18:43:39.534Z,1.74
2019-01-14T18:46:08.874Z,1.76
2019-01-14T18:48:38.308Z,1.77
2019-01-14T18:51:07.640Z,1.74
2019-01-14T18:53:38.674Z,1.70
2019-01-14T18:56:08.349Z,1.75
2019-01-14T18:58:37.737Z,1.65
2019-01-14T19:01:08.755Z,1.65
2019-01-14T19:04:04.433Z,1.51
2019-01-14T19:06:33.807Z,1.48
2019-01-14T19:09:04.848Z,1.48
2019-01-14T19:11:34.200Z,1.55
2019-01-14T19:14:03.546Z,1.50
2019-01-14T19:16:32.898Z,1.38
2019-01-14T19:19:02.271Z,1.05
2019-01-14T19:21:33.448Z,1.00
2019-01-14T19:24:02.845Z,1.08
2019-01-14T19:26:32.206Z,1.05
2019-01-14T19:29:01.568Z,1.28
2019-01-14T19:31:30.923Z,1.17
2019-01-14T19:34:00.340Z,1.23
2019-01-14T19:36:29.695Z,1.28
2019-01-14T19:38:58.982Z,1.21
2019-01-14T19:41:28.379Z,1.24
2019-01-14T19:43:59.410Z,1.34
2019-01-14T19:46:31.883Z,1.72
2019-01-14T19:49:01.242Z,1.92
2019-01-14T19:51:30.612Z,1.99
2019-01-14T19:53:59.981Z,2.18
2019-01-14T19:56:32.171Z,2.18
2019-01-14T19:59:01.654Z,2.44
2019-01-14T20:01:31.559Z,2.50
2019-01-14T20:04:00.887Z,2.45
2019-01-14T20:06:30.481Z,2.44
2019-01-14T20:08:59.967Z,2.42
2019-01-14T20:11:29.520Z,2.70
2019-01-14T20:13:59.746Z,2.52
2019-01-14T20:16:29.079Z,2.51
2019-01-14T20:18:58.442Z,2.46
2019-01-14T20:21:28.265Z,2.61
2019-01-14T20:23:57.944Z,2.63
2019-01-14T20:26:30.156Z,2.48
2019-01-14T20:29:02.665Z,2.48
2019-01-14T20:31:31.974Z,2.45
2019-01-14T20:34:01.391Z,2.72
2019-01-14T20:36:30.727Z,2.63
2019-01-14T20:39:00.726Z,2.55
2019-01-14T20:41:30.320Z,2.48
2019-01-14T20:44:05.126Z,2.60
2019-01-14T20:46:30.972Z,2.60
2019-01-14T20:49:03.557Z,2.55
2019-01-14T20:51:32.836Z,2.54
2019-01-14T20:54:02.573Z,2.47
2019-01-14T20:56:32.284Z,2.73
2019-01-14T20:59:02.056Z,2.39
2019-01-14T21:01:31.675Z,2.34
2019-01-14T21:04:01.119Z,2.33
2019-01-14T21:07:16.062Z,2.31
2019-01-14T21:09:45.494Z,2.36
2019-01-14T21:12:14.977Z,2.09
2019-01-14T21:14:44.425Z,2.03
2019-01-14T21:17:13.867Z,1.88
2019-01-14T21:19:48.015Z,2.12
2019-01-14T21:22:18.379Z,1.78
2019-01-14T21:24:47.992Z,1.69
2019-01-14T21:27:17.931Z,1.63
2019-01-14T21:29:47.426Z,1.74
2019-01-14T21:32:18.544Z,1.69
2019-01-14T21:34:47.970Z,1.53
2019-01-14T21:37:17.539Z,1.49
2019-01-14T21:39:46.962Z,1.48
2019-01-14T21:42:16.377Z,1.64
2019-01-14T21:44:47.043Z,1.52
2019-01-14T21:47:16.596Z,1.51
2019-01-14T21:49:46.190Z,1.50
2019-01-14T21:52:15.728Z,1.64
2019-01-14T21:54:45.253Z,1.46
2019-01-14T21:57:14.791Z,1.41
2019-01-14T21:59:44.249Z,1.38
2019-01-14T22:02:13.738Z,1.36
2019-01-14T22:04:43.182Z,1.58
2019-01-14T22:07:12.733Z,1.40
2019-01-14T22:09:42.161Z,1.34
2019-01-14T22:12:21.780Z,1.25
2019-01-14T22:14:51.638Z,-4.05
2019-01-14T22:17:21.186Z,1.27
2019-01-14T22:19:50.642Z,1.28
2019-01-14T22:22:20.276Z,1.15
2019-01-14T22:24:49.885Z,1.07
2019-01-14T22:27:19.427Z,1.22
2019-01-14T22:29:48.936Z,0.99
2019-01-14T22:32:18.404Z,0.89
2019-01-14T22:34:47.916Z,0.92
2019-01-14T22:37:17.379Z,1.14
2019-01-14T22:39:46.859Z,0.95
2019-01-14T22:42:16.316Z,0.89
2019-01-14T22:44:45.714Z,0.90
2019-01-14T22:47:15.179Z,0.78
2019-01-14T22:49:44.541Z,0.99
2019-01-14T22:52:13.930Z,0.72
2019-01-14T22:54:43.317Z,0.68
2019-01-14T22:57:12.676Z,0.79
2019-01-14T22:59:42.081Z,0.89
2019-01-14T23:02:11.454Z,0.80
2019-01-14T23:04:40.871Z,0.75
2019-01-14T23:07:10.214Z,0.65
2019-01-14T23:09:39.559Z,0.68
2019-01-14T23:12:08.916Z,1.06
2019-01-14T23:14:38.292Z,0.82
2019-01-14T23:17:07.712Z,0.77
2019-01-14T23:19:37.068Z,0.86
2019-01-14T23:22:06.400Z,0.90
2019-01-14T23:24:35.763Z,0.97
2019-01-14T23:27:05.122Z,1.01
2019-01-14T23:29:34.487Z,0.88
2019-01-14T23:32:04.677Z,0.74
2019-01-14T23:34:34.028Z,1.07
2019-01-14T23:37:03.403Z,1.26
2019-01-14T23:39:32.836Z,1.12
2019-01-14T23:42:02.206Z,1.00
2019-01-14T23:44:31.547Z,0.91
2019-01-14T23:47:00.898Z,0.89
2019-01-14T23:49:30.242Z,0.85
2019-01-14T23:51:59.576Z,0.77
2019-01-14T23:54:28.960Z,0.65
2019-01-14T23:56:58.319Z,0.53
2019-01-14T23:59:27.759Z,0.46
